sensor_id;sensor_type;location;lat;lon;timestamp;P1;durP1;ratioP1;P2;durP2;ratioP2
72584;SDS011;60618;40.084;32.908;2023-09-08T00:02:25;10.15;;;6.20;;
72584;SDS011;60618;40.084;32.908;2023-09-08T00:04:53;9.23;;;5.68;;
72584;SDS011;60618;40.084;32.908;2023-09-08T00:07:21;12.05;;;5.88;;
72584;SDS011;60618;40.084;32.908;2023-09-08T00:09:48;10.23;;;6.20;;
72584;SDS011;60618;40.084;32.908;2023-09-08T00:12:14;9.60;;;5.53;;
72584;SDS011;60618;40.084;32.908;2023-09-08T00:14:42;12.25;;;5.90;;
72584;SDS011;60618;40.084;32.908;2023-09-08T00:17:09;9.85;;;6.07;;
72584;SDS011;60618;40.084;32.908;2023-09-08T00:19:35;11.10;;;6.13;;
72584;SDS011;60618;40.084;32.908;2023-09-08T00:22:10;10.27;;;5.88;;
72584;SDS011;60618;40.084;32.908;2023-09-08T00:24:37;8.27;;;5.33;;
72584;SDS011;60618;40.084;32.908;2023-09-08T00:27:04;8.85;;;5.63;;
72584;SDS011;60618;40.084;32.908;2023-09-08T00:29:31;9.40;;;5.68;;
72584;SDS011;60618;40.084;32.908;2023-09-08T00:31:58;9.52;;;5.43;;
72584;SDS011;60618;40.084;32.908;2023-09-08T00:34:25;9.10;;;5.97;;
72584;SDS011;60618;40.084;32.908;2023-09-08T00:36:52;9.33;;;5.30;;
72584;SDS011;60618;40.084;32.908;2023-09-08T00:39:19;8.23;;;5.60;;
72584;SDS011;60618;40.084;32.908;2023-09-08T00:41:46;12.40;;;6.28;;
72584;SDS011;60618;40.084;32.908;2023-09-08T00:44:13;11.00;;;5.90;;
72584;SDS011;60618;40.084;32.908;2023-09-08T00:46:40;9.95;;;5.85;;
72584;SDS011;60618;40.084;32.908;2023-09-08T00:49:07;7.97;;;5.50;;
72584;SDS011;60618;40.084;32.908;2023-09-08T00:51:34;9.75;;;5.75;;
72584;SDS011;60618;40.084;32.908;2023-09-08T00:54:01;9.57;;;5.78;;
72584;SDS011;60618;40.084;32.908;2023-09-08T00:56:28;8.77;;;5.30;;
72584;SDS011;60618;40.084;32.908;2023-09-08T00:58:56;10.20;;;5.35;;
72584;SDS011;60618;40.084;32.908;2023-09-08T01:01:23;9.20;;;5.20;;
72584;SDS011;60618;40.084;32.908;2023-09-08T01:03:50;9.65;;;5.30;;
72584;SDS011;60618;40.084;32.908;2023-09-08T01:06:17;8.93;;;4.80;;
72584;SDS011;60618;40.084;32.908;2023-09-08T01:08:45;10.27;;;5.32;;
72584;SDS011;60618;40.084;32.908;2023-09-08T01:11:12;7.93;;;5.00;;
72584;SDS011;60618;40.084;32.908;2023-09-08T01:13:40;10.63;;;5.40;;
72584;SDS011;60618;40.084;32.908;2023-09-08T01:16:06;9.93;;;5.25;;
72584;SDS011;60618;40.084;32.908;2023-09-08T01:18:33;8.52;;;4.95;;
72584;SDS011;60618;40.084;32.908;2023-09-08T01:26:28;7.63;;;4.40;;
72584;SDS011;60618;40.084;32.908;2023-09-08T01:29:00;7.80;;;4.47;;
72584;SDS011;60618;40.084;32.908;2023-09-08T01:31:30;8.40;;;4.50;;
72584;SDS011;60618;40.084;32.908;2023-09-08T01:33:57;7.63;;;4.05;;
72584;SDS011;60618;40.084;32.908;2023-09-08T01:36:24;7.45;;;4.30;;
72584;SDS011;60618;40.084;32.908;2023-09-08T01:38:51;9.87;;;4.60;;
72584;SDS011;60618;40.084;32.908;2023-09-08T01:41:18;8.18;;;4.50;;
72584;SDS011;60618;40.084;32.908;2023-09-08T01:43:45;7.60;;;4.72;;
72584;SDS011;60618;40.084;32.908;2023-09-08T01:46:12;7.78;;;5.10;;
72584;SDS011;60618;40.084;32.908;2023-09-08T01:48:39;8.07;;;4.32;;
72584;SDS011;60618;40.084;32.908;2023-09-08T01:51:06;8.67;;;4.90;;
72584;SDS011;60618;40.084;32.908;2023-09-08T01:53:33;9.15;;;4.28;;
72584;SDS011;60618;40.084;32.908;2023-09-08T01:56:00;9.77;;;4.72;;
72584;SDS011;60618;40.084;32.908;2023-09-08T01:58:27;9.00;;;4.55;;
72584;SDS011;60618;40.084;32.908;2023-09-08T02:00:54;8.68;;;4.60;;
72584;SDS011;60618;40.084;32.908;2023-09-08T02:03:21;7.30;;;4.70;;
72584;SDS011;60618;40.084;32.908;2023-09-08T02:05:48;7.65;;;4.53;;
72584;SDS011;60618;40.084;32.908;2023-09-08T02:08:15;9.50;;;4.50;;
72584;SDS011;60618;40.084;32.908;2023-09-08T02:10:42;7.72;;;4.40;;
72584;SDS011;60618;40.084;32.908;2023-09-08T02:13:09;8.32;;;4.50;;
72584;SDS011;60618;40.084;32.908;2023-09-08T02:15:36;8.20;;;4.60;;
72584;SDS011;60618;40.084;32.908;2023-09-08T02:18:03;9.80;;;4.68;;
72584;SDS011;60618;40.084;32.908;2023-09-08T02:20:30;9.63;;;4.38;;
72584;SDS011;60618;40.084;32.908;2023-09-08T02:22:57;8.52;;;4.50;;
72584;SDS011;60618;40.084;32.908;2023-09-08T02:25:30;7.47;;;4.60;;
72584;SDS011;60618;40.084;32.908;2023-09-08T02:27:57;8.40;;;4.60;;
72584;SDS011;60618;40.084;32.908;2023-09-08T02:30:24;9.32;;;4.80;;
72584;SDS011;60618;40.084;32.908;2023-09-08T02:32:51;7.30;;;4.80;;
72584;SDS011;60618;40.084;32.908;2023-09-08T02:35:18;8.88;;;4.50;;
72584;SDS011;60618;40.084;32.908;2023-09-08T02:37:45;9.88;;;4.70;;
72584;SDS011;60618;40.084;32.908;2023-09-08T02:40:12;8.20;;;4.67;;
72584;SDS011;60618;40.084;32.908;2023-09-08T02:42:39;7.45;;;4.40;;
72584;SDS011;60618;40.084;32.908;2023-09-08T02:45:06;7.60;;;4.22;;
72584;SDS011;60618;40.084;32.908;2023-09-08T02:47:33;11.68;;;4.90;;
72584;SDS011;60618;40.084;32.908;2023-09-08T02:50:00;9.18;;;4.65;;
72584;SDS011;60618;40.084;32.908;2023-09-08T02:52:27;8.77;;;4.87;;
72584;SDS011;60618;40.084;32.908;2023-09-08T02:54:54;8.43;;;4.90;;
72584;SDS011;60618;40.084;32.908;2023-09-08T02:57:21;8.88;;;4.50;;
72584;SDS011;60618;40.084;32.908;2023-09-08T02:59:48;8.13;;;4.50;;
72584;SDS011;60618;40.084;32.908;2023-09-08T03:02:16;7.53;;;4.72;;
72584;SDS011;60618;40.084;32.908;2023-09-08T03:04:43;8.17;;;4.13;;
72584;SDS011;60618;40.084;32.908;2023-09-08T03:07:10;10.32;;;4.70;;
72584;SDS011;60618;40.084;32.908;2023-09-08T03:09:37;9.27;;;4.50;;
72584;SDS011;60618;40.084;32.908;2023-09-08T03:12:04;8.60;;;4.18;;
72584;SDS011;60618;40.084;32.908;2023-09-08T03:14:31;8.52;;;4.60;;
72584;SDS011;60618;40.084;32.908;2023-09-08T03:16:58;8.73;;;4.37;;
72584;SDS011;60618;40.084;32.908;2023-09-08T03:19:25;10.70;;;4.43;;
72584;SDS011;60618;40.084;32.908;2023-09-08T03:21:52;9.60;;;4.60;;
72584;SDS011;60618;40.084;32.908;2023-09-08T03:24:19;9.15;;;4.50;;
72584;SDS011;60618;40.084;32.908;2023-09-08T03:26:46;8.25;;;4.30;;
72584;SDS011;60618;40.084;32.908;2023-09-08T03:29:13;9.90;;;4.30;;
72584;SDS011;60618;40.084;32.908;2023-09-08T03:31:40;7.50;;;4.40;;
72584;SDS011;60618;40.084;32.908;2023-09-08T03:34:07;7.65;;;4.57;;
72584;SDS011;60618;40.084;32.908;2023-09-08T03:36:34;8.13;;;4.28;;
72584;SDS011;60618;40.084;32.908;2023-09-08T03:39:02;7.40;;;4.80;;
72584;SDS011;60618;40.084;32.908;2023-09-08T03:41:29;7.50;;;3.97;;
72584;SDS011;60618;40.084;32.908;2023-09-08T03:43:56;7.60;;;4.50;;
72584;SDS011;60618;40.084;32.908;2023-09-08T03:46:26;6.68;;;4.05;;
72584;SDS011;60618;40.084;32.908;2023-09-08T03:48:53;8.05;;;4.55;;
72584;SDS011;60618;40.084;32.908;2023-09-08T03:51:20;7.13;;;4.20;;
72584;SDS011;60618;40.084;32.908;2023-09-08T03:53:47;8.20;;;4.50;;
72584;SDS011;60618;40.084;32.908;2023-09-08T03:56:14;8.82;;;5.00;;
72584;SDS011;60618;40.084;32.908;2023-09-08T03:58:41;6.97;;;4.40;;
72584;SDS011;60618;40.084;32.908;2023-09-08T04:01:08;8.07;;;4.60;;
72584;SDS011;60618;40.084;32.908;2023-09-08T04:03:35;7.32;;;4.45;;
72584;SDS011;60618;40.084;32.908;2023-09-08T04:06:02;11.63;;;4.80;;
72584;SDS011;60618;40.084;32.908;2023-09-08T04:08:29;8.00;;;4.50;;
72584;SDS011;60618;40.084;32.908;2023-09-08T04:10:56;8.65;;;4.55;;
72584;SDS011;60618;40.084;32.908;2023-09-08T04:13:23;8.98;;;4.55;;
72584;SDS011;60618;40.084;32.908;2023-09-08T04:15:50;8.13;;;5.20;;
72584;SDS011;60618;40.084;32.908;2023-09-08T04:18:17;9.30;;;4.50;;
72584;SDS011;60618;40.084;32.908;2023-09-08T04:20:44;8.15;;;4.53;;
72584;SDS011;60618;40.084;32.908;2023-09-08T04:23:11;7.85;;;4.70;;
72584;SDS011;60618;40.084;32.908;2023-09-08T04:25:38;7.32;;;4.25;;
72584;SDS011;60618;40.084;32.908;2023-09-08T04:28:05;8.25;;;4.53;;
72584;SDS011;60618;40.084;32.908;2023-09-08T04:30:32;7.00;;;4.40;;
72584;SDS011;60618;40.084;32.908;2023-09-08T04:32:59;8.15;;;4.43;;
72584;SDS011;60618;40.084;32.908;2023-09-08T04:35:26;7.05;;;4.63;;
72584;SDS011;60618;40.084;32.908;2023-09-08T04:37:56;7.97;;;4.22;;
72584;SDS011;60618;40.084;32.908;2023-09-08T04:40:23;10.73;;;4.15;;
72584;SDS011;60618;40.084;32.908;2023-09-08T04:42:50;7.27;;;4.37;;
72584;SDS011;60618;40.084;32.908;2023-09-08T04:45:17;8.05;;;4.43;;
72584;SDS011;60618;40.084;32.908;2023-09-08T04:47:44;8.63;;;4.55;;
72584;SDS011;60618;40.084;32.908;2023-09-08T04:50:11;7.85;;;4.30;;
72584;SDS011;60618;40.084;32.908;2023-09-08T04:52:37;9.27;;;4.55;;
72584;SDS011;60618;40.084;32.908;2023-09-08T04:55:05;9.23;;;4.80;;
72584;SDS011;60618;40.084;32.908;2023-09-08T04:57:32;8.52;;;4.93;;
72584;SDS011;60618;40.084;32.908;2023-09-08T04:59:59;8.07;;;4.45;;
72584;SDS011;60618;40.084;32.908;2023-09-08T05:02:26;7.65;;;4.70;;
72584;SDS011;60618;40.084;32.908;2023-09-08T05:04:54;9.18;;;4.50;;
72584;SDS011;60618;40.084;32.908;2023-09-08T05:07:21;10.57;;;4.77;;
72584;SDS011;60618;40.084;32.908;2023-09-08T05:09:48;10.35;;;4.80;;
72584;SDS011;60618;40.084;32.908;2023-09-08T05:12:14;10.02;;;4.97;;
72584;SDS011;60618;40.084;32.908;2023-09-08T05:14:41;7.25;;;4.53;;
72584;SDS011;60618;40.084;32.908;2023-09-08T05:17:08;8.00;;;4.90;;
72584;SDS011;60618;40.084;32.908;2023-09-08T05:19:35;14.13;;;5.20;;
72584;SDS011;60618;40.084;32.908;2023-09-08T05:22:04;11.00;;;4.80;;
72584;SDS011;60618;40.084;32.908;2023-09-08T05:24:31;9.75;;;4.88;;
72584;SDS011;60618;40.084;32.908;2023-09-08T05:26:58;8.05;;;4.68;;
72584;SDS011;60618;40.084;32.908;2023-09-08T05:29:25;8.88;;;4.70;;
72584;SDS011;60618;40.084;32.908;2023-09-08T05:31:52;8.63;;;4.73;;
72584;SDS011;60618;40.084;32.908;2023-09-08T05:34:20;8.27;;;4.82;;
72584;SDS011;60618;40.084;32.908;2023-09-08T05:36:47;10.30;;;5.20;;
72584;SDS011;60618;40.084;32.908;2023-09-08T05:39:14;10.32;;;4.68;;
72584;SDS011;60618;40.084;32.908;2023-09-08T05:41:41;10.85;;;4.72;;
72584;SDS011;60618;40.084;32.908;2023-09-08T05:44:09;7.90;;;4.70;;
72584;SDS011;60618;40.084;32.908;2023-09-08T05:46:36;7.72;;;5.00;;
72584;SDS011;60618;40.084;32.908;2023-09-08T05:49:03;10.05;;;4.75;;
72584;SDS011;60618;40.084;32.908;2023-09-08T05:51:30;11.88;;;5.10;;
72584;SDS011;60618;40.084;32.908;2023-09-08T05:53:57;12.13;;;4.68;;
72584;SDS011;60618;40.084;32.908;2023-09-08T05:56:29;9.00;;;4.90;;
72584;SDS011;60618;40.084;32.908;2023-09-08T05:58:57;8.55;;;4.88;;
72584;SDS011;60618;40.084;32.908;2023-09-08T06:01:27;7.70;;;4.60;;
72584;SDS011;60618;40.084;32.908;2023-09-08T06:03:54;9.32;;;5.10;;
72584;SDS011;60618;40.084;32.908;2023-09-08T06:06:22;8.65;;;4.78;;
72584;SDS011;60618;40.084;32.908;2023-09-08T06:08:51;7.57;;;4.73;;
72584;SDS011;60618;40.084;32.908;2023-09-08T06:11:18;9.52;;;4.80;;
72584;SDS011;60618;40.084;32.908;2023-09-08T06:13:45;9.38;;;4.95;;
72584;SDS011;60618;40.084;32.908;2023-09-08T06:16:12;8.98;;;4.90;;
72584;SDS011;60618;40.084;32.908;2023-09-08T06:18:39;9.60;;;4.88;;
72584;SDS011;60618;40.084;32.908;2023-09-08T06:21:07;11.83;;;4.77;;
72584;SDS011;60618;40.084;32.908;2023-09-08T06:23:37;8.77;;;5.25;;
72584;SDS011;60618;40.084;32.908;2023-09-08T06:26:04;7.40;;;4.60;;
72584;SDS011;60618;40.084;32.908;2023-09-08T06:28:31;8.65;;;4.30;;
72584;SDS011;60618;40.084;32.908;2023-09-08T06:30:59;7.60;;;4.78;;
72584;SDS011;60618;40.084;32.908;2023-09-08T06:33:26;9.07;;;4.50;;
72584;SDS011;60618;40.084;32.908;2023-09-08T06:35:53;8.05;;;4.50;;
72584;SDS011;60618;40.084;32.908;2023-09-08T06:38:20;7.07;;;4.38;;
72584;SDS011;60618;40.084;32.908;2023-09-08T06:40:47;9.73;;;4.43;;
72584;SDS011;60618;40.084;32.908;2023-09-08T06:43:14;8.32;;;4.43;;
72584;SDS011;60618;40.084;32.908;2023-09-08T06:45:41;6.50;;;4.27;;
72584;SDS011;60618;40.084;32.908;2023-09-08T06:48:11;7.97;;;4.30;;
72584;SDS011;60618;40.084;32.908;2023-09-08T06:50:38;9.30;;;4.72;;
72584;SDS011;60618;40.084;32.908;2023-09-08T06:53:05;7.32;;;4.80;;
72584;SDS011;60618;40.084;32.908;2023-09-08T06:55:32;8.45;;;4.65;;
72584;SDS011;60618;40.084;32.908;2023-09-08T06:57:59;7.57;;;4.50;;
72584;SDS011;60618;40.084;32.908;2023-09-08T07:00:29;8.85;;;4.65;;
72584;SDS011;60618;40.084;32.908;2023-09-08T07:02:56;8.00;;;4.70;;
72584;SDS011;60618;40.084;32.908;2023-09-08T07:05:23;8.38;;;4.20;;
72584;SDS011;60618;40.084;32.908;2023-09-08T07:07:50;9.40;;;4.80;;
72584;SDS011;60618;40.084;32.908;2023-09-08T07:10:18;8.40;;;4.50;;
72584;SDS011;60618;40.084;32.908;2023-09-08T07:12:46;7.32;;;4.30;;
72584;SDS011;60618;40.084;32.908;2023-09-08T07:15:13;11.00;;;5.00;;
72584;SDS011;60618;40.084;32.908;2023-09-08T07:17:43;8.68;;;4.80;;
72584;SDS011;60618;40.084;32.908;2023-09-08T07:20:10;9.32;;;4.88;;
72584;SDS011;60618;40.084;32.908;2023-09-08T07:22:37;8.67;;;4.73;;
72584;SDS011;60618;40.084;32.908;2023-09-08T07:25:04;7.25;;;4.40;;
72584;SDS011;60618;40.084;32.908;2023-09-08T07:27:31;8.20;;;4.72;;
72584;SDS011;60618;40.084;32.908;2023-09-08T07:29:58;7.43;;;4.65;;
72584;SDS011;60618;40.084;32.908;2023-09-08T07:32:25;9.63;;;4.90;;
72584;SDS011;60618;40.084;32.908;2023-09-08T07:34:52;8.20;;;4.50;;
72584;SDS011;60618;40.084;32.908;2023-09-08T07:37:19;8.23;;;4.78;;
72584;SDS011;60618;40.084;32.908;2023-09-08T07:39:46;8.32;;;4.70;;
72584;SDS011;60618;40.084;32.908;2023-09-08T07:42:13;10.68;;;4.50;;
72584;SDS011;60618;40.084;32.908;2023-09-08T07:44:40;9.95;;;5.07;;
72584;SDS011;60618;40.084;32.908;2023-09-08T07:47:07;9.70;;;4.87;;
72584;SDS011;60618;40.084;32.908;2023-09-08T07:49:34;9.10;;;4.88;;
72584;SDS011;60618;40.084;32.908;2023-09-08T07:52:02;8.63;;;4.55;;
72584;SDS011;60618;40.084;32.908;2023-09-08T07:54:29;8.73;;;4.60;;
72584;SDS011;60618;40.084;32.908;2023-09-08T07:56:56;8.70;;;4.63;;
72584;SDS011;60618;40.084;32.908;2023-09-08T07:59:23;7.20;;;4.53;;
72584;SDS011;60618;40.084;32.908;2023-09-08T08:01:50;7.32;;;4.68;;
72584;SDS011;60618;40.084;32.908;2023-09-08T08:04:17;8.07;;;4.70;;
72584;SDS011;60618;40.084;32.908;2023-09-08T08:06:44;9.77;;;4.65;;
72584;SDS011;60618;40.084;32.908;2023-09-08T08:09:10;8.45;;;4.60;;
72584;SDS011;60618;40.084;32.908;2023-09-08T08:11:37;10.13;;;4.80;;
72584;SDS011;60618;40.084;32.908;2023-09-08T08:14:08;7.82;;;4.50;;
72584;SDS011;60618;40.084;32.908;2023-09-08T08:16:36;7.20;;;4.45;;
72584;SDS011;60618;40.084;32.908;2023-09-08T08:19:03;7.82;;;4.70;;
72584;SDS011;60618;40.084;32.908;2023-09-08T08:21:30;8.32;;;4.65;;
72584;SDS011;60618;40.084;32.908;2023-09-08T08:23:57;6.70;;;4.40;;
72584;SDS011;60618;40.084;32.908;2023-09-08T08:26:24;7.57;;;4.80;;
72584;SDS011;60618;40.084;32.908;2023-09-08T08:28:51;8.10;;;4.32;;
72584;SDS011;60618;40.084;32.908;2023-09-08T08:31:18;8.00;;;4.30;;
72584;SDS011;60618;40.084;32.908;2023-09-08T08:33:45;6.65;;;4.40;;
72584;SDS011;60618;40.084;32.908;2023-09-08T08:36:11;8.00;;;4.50;;
72584;SDS011;60618;40.084;32.908;2023-09-08T08:38:38;7.50;;;4.28;;
72584;SDS011;60618;40.084;32.908;2023-09-08T08:41:05;7.70;;;4.30;;
72584;SDS011;60618;40.084;32.908;2023-09-08T08:43:32;7.45;;;3.95;;
72584;SDS011;60618;40.084;32.908;2023-09-08T08:45:59;7.88;;;4.38;;
72584;SDS011;60618;40.084;32.908;2023-09-08T08:48:28;7.00;;;4.17;;
72584;SDS011;60618;40.084;32.908;2023-09-08T08:50:56;6.75;;;4.20;;
72584;SDS011;60618;40.084;32.908;2023-09-08T08:53:23;10.77;;;4.20;;
72584;SDS011;60618;40.084;32.908;2023-09-08T08:55:52;8.15;;;4.20;;
72584;SDS011;60618;40.084;32.908;2023-09-08T08:58:22;9.20;;;4.32;;
72584;SDS011;60618;40.084;32.908;2023-09-08T09:00:50;8.47;;;4.43;;
72584;SDS011;60618;40.084;32.908;2023-09-08T09:03:18;6.90;;;4.15;;
72584;SDS011;60618;40.084;32.908;2023-09-08T09:05:47;7.20;;;4.20;;
72584;SDS011;60618;40.084;32.908;2023-09-08T09:08:15;7.15;;;3.95;;
72584;SDS011;60618;40.084;32.908;2023-09-08T09:10:43;9.60;;;4.47;;
72584;SDS011;60618;40.084;32.908;2023-09-08T09:13:10;8.00;;;4.30;;
72584;SDS011;60618;40.084;32.908;2023-09-08T09:15:37;8.77;;;4.45;;
72584;SDS011;60618;40.084;32.908;2023-09-08T09:18:04;7.90;;;4.00;;
72584;SDS011;60618;40.084;32.908;2023-09-08T09:20:33;8.13;;;4.20;;
72584;SDS011;60618;40.084;32.908;2023-09-08T09:23:00;10.07;;;4.30;;
72584;SDS011;60618;40.084;32.908;2023-09-08T09:25:28;6.73;;;3.87;;
72584;SDS011;60618;40.084;32.908;2023-09-08T09:27:58;6.43;;;4.53;;
72584;SDS011;60618;40.084;32.908;2023-09-08T09:30:27;7.47;;;3.95;;
72584;SDS011;60618;40.084;32.908;2023-09-08T09:33:04;6.45;;;3.97;;
72584;SDS011;60618;40.084;32.908;2023-09-08T09:35:45;8.40;;;4.00;;
72584;SDS011;60618;40.084;32.908;2023-09-08T09:38:13;8.00;;;4.10;;
72584;SDS011;60618;40.084;32.908;2023-09-08T09:40:41;6.47;;;3.80;;
72584;SDS011;60618;40.084;32.908;2023-09-08T09:43:08;8.85;;;4.00;;
72584;SDS011;60618;40.084;32.908;2023-09-08T09:45:36;7.43;;;3.90;;
72584;SDS011;60618;40.084;32.908;2023-09-08T09:48:04;7.60;;;3.80;;
72584;SDS011;60618;40.084;32.908;2023-09-08T09:50:36;6.13;;;3.90;;
72584;SDS011;60618;40.084;32.908;2023-09-08T09:53:11;6.82;;;4.30;;
72584;SDS011;60618;40.084;32.908;2023-09-08T09:55:41;7.32;;;3.65;;
72584;SDS011;60618;40.084;32.908;2023-09-08T09:58:09;6.45;;;3.75;;
72584;SDS011;60618;40.084;32.908;2023-09-08T10:00:37;7.28;;;4.05;;
72584;SDS011;60618;40.084;32.908;2023-09-08T10:03:05;8.70;;;3.90;;
72584;SDS011;60618;40.084;32.908;2023-09-08T10:05:32;6.30;;;3.72;;
72584;SDS011;60618;40.084;32.908;2023-09-08T10:08:00;8.38;;;3.92;;
72584;SDS011;60618;40.084;32.908;2023-09-08T10:10:27;6.65;;;3.55;;
72584;SDS011;60618;40.084;32.908;2023-09-08T10:12:57;7.07;;;3.90;;
72584;SDS011;60618;40.084;32.908;2023-09-08T10:15:28;7.27;;;4.00;;
72584;SDS011;60618;40.084;32.908;2023-09-08T10:18:03;6.03;;;3.58;;
72584;SDS011;60618;40.084;32.908;2023-09-08T10:20:32;6.25;;;3.60;;
72584;SDS011;60618;40.084;32.908;2023-09-08T10:23:07;6.93;;;3.95;;
72584;SDS011;60618;40.084;32.908;2023-09-08T10:25:42;6.15;;;3.60;;
72584;SDS011;60618;40.084;32.908;2023-09-08T10:28:13;8.23;;;3.80;;
72584;SDS011;60618;40.084;32.908;2023-09-08T10:30:40;6.72;;;3.90;;
72584;SDS011;60618;40.084;32.908;2023-09-08T10:33:08;6.95;;;3.80;;
72584;SDS011;60618;40.084;32.908;2023-09-08T10:35:37;6.60;;;3.80;;
72584;SDS011;60618;40.084;32.908;2023-09-08T10:38:23;7.10;;;4.00;;
72584;SDS011;60618;40.084;32.908;2023-09-08T10:43:43;6.78;;;4.07;;
72584;SDS011;60618;40.084;32.908;2023-09-08T10:46:11;7.15;;;4.05;;
72584;SDS011;60618;40.084;32.908;2023-09-08T10:48:48;5.68;;;3.92;;
72584;SDS011;60618;40.084;32.908;2023-09-08T10:51:18;7.53;;;4.18;;
72584;SDS011;60618;40.084;32.908;2023-09-08T10:53:48;7.10;;;4.00;;
72584;SDS011;60618;40.084;32.908;2023-09-08T10:56:16;8.82;;;4.05;;
72584;SDS011;60618;40.084;32.908;2023-09-08T10:58:43;8.82;;;4.20;;
72584;SDS011;60618;40.084;32.908;2023-09-08T11:01:16;6.55;;;4.00;;
72584;SDS011;60618;40.084;32.908;2023-09-08T11:03:46;8.57;;;3.75;;
72584;SDS011;60618;40.084;32.908;2023-09-08T11:06:15;7.13;;;3.70;;
72584;SDS011;60618;40.084;32.908;2023-09-08T11:08:43;9.38;;;4.00;;
72584;SDS011;60618;40.084;32.908;2023-09-08T11:11:12;9.15;;;3.80;;
72584;SDS011;60618;40.084;32.908;2023-09-08T11:13:40;7.10;;;3.70;;
72584;SDS011;60618;40.084;32.908;2023-09-08T11:16:08;8.15;;;4.20;;
72584;SDS011;60618;40.084;32.908;2023-09-08T11:18:35;6.90;;;3.80;;
72584;SDS011;60618;40.084;32.908;2023-09-08T11:21:04;7.18;;;3.60;;
72584;SDS011;60618;40.084;32.908;2023-09-08T11:23:34;6.80;;;3.70;;
72584;SDS011;60618;40.084;32.908;2023-09-08T11:26:03;5.60;;;3.33;;
72584;SDS011;60618;40.084;32.908;2023-09-08T11:28:30;7.10;;;4.10;;
72584;SDS011;60618;40.084;32.908;2023-09-08T11:30:57;6.73;;;3.60;;
72584;SDS011;60618;40.084;32.908;2023-09-08T11:33:24;7.53;;;3.60;;
72584;SDS011;60618;40.084;32.908;2023-09-08T11:35:52;8.18;;;3.55;;
72584;SDS011;60618;40.084;32.908;2023-09-08T11:38:25;7.25;;;3.90;;
72584;SDS011;60618;40.084;32.908;2023-09-08T11:40:53;7.20;;;3.42;;
72584;SDS011;60618;40.084;32.908;2023-09-08T11:43:21;5.60;;;3.50;;
72584;SDS011;60618;40.084;32.908;2023-09-08T11:45:48;7.82;;;3.45;;
72584;SDS011;60618;40.084;32.908;2023-09-08T11:48:15;6.35;;;3.30;;
72584;SDS011;60618;40.084;32.908;2023-09-08T11:50:42;6.70;;;3.33;;
72584;SDS011;60618;40.084;32.908;2023-09-08T11:53:11;7.05;;;3.90;;
72584;SDS011;60618;40.084;32.908;2023-09-08T11:55:38;7.40;;;3.70;;
72584;SDS011;60618;40.084;32.908;2023-09-08T11:58:05;8.27;;;4.70;;
72584;SDS011;60618;40.084;32.908;2023-09-08T12:00:33;7.00;;;3.60;;
72584;SDS011;60618;40.084;32.908;2023-09-08T12:03:13;7.05;;;3.25;;
72584;SDS011;60618;40.084;32.908;2023-09-08T12:05:42;7.88;;;4.03;;
72584;SDS011;60618;40.084;32.908;2023-09-08T12:08:11;8.23;;;3.90;;
72584;SDS011;60618;40.084;32.908;2023-09-08T12:10:40;6.47;;;3.72;;
72584;SDS011;60618;40.084;32.908;2023-09-08T12:13:08;9.13;;;3.70;;
72584;SDS011;60618;40.084;32.908;2023-09-08T12:15:36;8.85;;;3.80;;
72584;SDS011;60618;40.084;32.908;2023-09-08T12:18:07;7.50;;;3.90;;
72584;SDS011;60618;40.084;32.908;2023-09-08T12:20:36;6.63;;;3.67;;
72584;SDS011;60618;40.084;32.908;2023-09-08T12:23:05;7.13;;;3.70;;
72584;SDS011;60618;40.084;32.908;2023-09-08T12:25:33;6.15;;;3.45;;
72584;SDS011;60618;40.084;32.908;2023-09-08T12:28:03;7.38;;;4.25;;
72584;SDS011;60618;40.084;32.908;2023-09-08T12:30:31;11.82;;;4.10;;
72584;SDS011;60618;40.084;32.908;2023-09-08T12:33:00;6.53;;;3.83;;
72584;SDS011;60618;40.084;32.908;2023-09-08T12:35:28;6.03;;;3.70;;
72584;SDS011;60618;40.084;32.908;2023-09-08T12:37:58;10.00;;;3.35;;
72584;SDS011;60618;40.084;32.908;2023-09-08T12:40:36;6.95;;;4.70;;
72584;SDS011;60618;40.084;32.908;2023-09-08T12:43:04;6.70;;;3.85;;
72584;SDS011;60618;40.084;32.908;2023-09-08T12:45:51;8.10;;;3.90;;
72584;SDS011;60618;40.084;32.908;2023-09-08T12:48:18;6.35;;;3.30;;
72584;SDS011;60618;40.084;32.908;2023-09-08T12:50:46;6.45;;;3.10;;
72584;SDS011;60618;40.084;32.908;2023-09-08T12:53:13;5.60;;;3.40;;
72584;SDS011;60618;40.084;32.908;2023-09-08T12:55:40;5.80;;;3.47;;
72584;SDS011;60618;40.084;32.908;2023-09-08T12:58:07;8.50;;;3.40;;
72584;SDS011;60618;40.084;32.908;2023-09-08T13:00:34;9.10;;;3.50;;
72584;SDS011;60618;40.084;32.908;2023-09-08T13:03:01;7.15;;;3.40;;
72584;SDS011;60618;40.084;32.908;2023-09-08T13:05:28;6.80;;;3.80;;
72584;SDS011;60618;40.084;32.908;2023-09-08T13:07:55;7.03;;;3.70;;
72584;SDS011;60618;40.084;32.908;2023-09-08T13:10:22;6.77;;;3.40;;
72584;SDS011;60618;40.084;32.908;2023-09-08T13:12:49;6.80;;;3.53;;
72584;SDS011;60618;40.084;32.908;2023-09-08T13:15:16;7.57;;;3.85;;
72584;SDS011;60618;40.084;32.908;2023-09-08T13:17:43;7.07;;;3.67;;
72584;SDS011;60618;40.084;32.908;2023-09-08T13:20:11;7.07;;;3.50;;
72584;SDS011;60618;40.084;32.908;2023-09-08T13:22:38;7.50;;;3.50;;
72584;SDS011;60618;40.084;32.908;2023-09-08T13:25:05;7.05;;;3.50;;
72584;SDS011;60618;40.084;32.908;2023-09-08T13:27:32;8.35;;;3.70;;
72584;SDS011;60618;40.084;32.908;2023-09-08T13:30:09;6.78;;;3.50;;
72584;SDS011;60618;40.084;32.908;2023-09-08T13:32:37;6.22;;;3.70;;
72584;SDS011;60618;40.084;32.908;2023-09-08T13:35:06;7.07;;;3.60;;
72584;SDS011;60618;40.084;32.908;2023-09-08T13:37:33;6.30;;;3.63;;
72584;SDS011;60618;40.084;32.908;2023-09-08T13:40:01;6.93;;;3.70;;
72584;SDS011;60618;40.084;32.908;2023-09-08T13:42:29;7.45;;;4.00;;
72584;SDS011;60618;40.084;32.908;2023-09-08T13:44:57;6.47;;;3.63;;
72584;SDS011;60618;40.084;32.908;2023-09-08T13:47:27;6.60;;;3.90;;
72584;SDS011;60618;40.084;32.908;2023-09-08T13:49:55;8.50;;;4.30;;
72584;SDS011;60618;40.084;32.908;2023-09-08T13:52:24;8.02;;;4.10;;
72584;SDS011;60618;40.084;32.908;2023-09-08T13:54:56;6.47;;;4.47;;
72584;SDS011;60618;40.084;32.908;2023-09-08T13:57:26;9.75;;;4.97;;
72584;SDS011;60618;40.084;32.908;2023-09-08T13:59:55;6.43;;;4.07;;
72584;SDS011;60618;40.084;32.908;2023-09-08T14:02:23;6.68;;;4.30;;
72584;SDS011;60618;40.084;32.908;2023-09-08T14:04:53;6.72;;;4.57;;
72584;SDS011;60618;40.084;32.908;2023-09-08T14:07:29;7.25;;;4.57;;
72584;SDS011;60618;40.084;32.908;2023-09-08T14:09:58;7.53;;;4.93;;
72584;SDS011;60618;40.084;32.908;2023-09-08T14:12:45;6.97;;;4.80;;
72584;SDS011;60618;40.084;32.908;2023-09-08T14:15:12;8.20;;;4.75;;
72584;SDS011;60618;40.084;32.908;2023-09-08T14:17:39;7.32;;;4.85;;
72584;SDS011;60618;40.084;32.908;2023-09-08T14:20:06;7.03;;;4.45;;
72584;SDS011;60618;40.084;32.908;2023-09-08T14:22:33;6.95;;;4.45;;
72584;SDS011;60618;40.084;32.908;2023-09-08T14:25:00;7.80;;;4.60;;
72584;SDS011;60618;40.084;32.908;2023-09-08T14:27:27;6.47;;;4.28;;
72584;SDS011;60618;40.084;32.908;2023-09-08T14:29:54;7.60;;;4.82;;
72584;SDS011;60618;40.084;32.908;2023-09-08T14:32:21;6.85;;;4.40;;
72584;SDS011;60618;40.084;32.908;2023-09-08T14:34:48;6.72;;;4.40;;
72584;SDS011;60618;40.084;32.908;2023-09-08T14:37:15;7.27;;;3.80;;
72584;SDS011;60618;40.084;32.908;2023-09-08T14:39:42;8.10;;;4.07;;
72584;SDS011;60618;40.084;32.908;2023-09-08T14:42:09;7.13;;;4.40;;
72584;SDS011;60618;40.084;32.908;2023-09-08T14:44:36;6.38;;;4.47;;
72584;SDS011;60618;40.084;32.908;2023-09-08T14:47:03;7.43;;;4.18;;